Terminal Aerodrome Forecast
Issued by NWS

Home | Current Version | Previous Version | Text Only | Print | Product List | Glossary On
Versions: 1 2 3 4 5 6 7 8 9 10 11 12 13 14 15 16 17 18 19 20 21 22
000
FTUS41 KPBZ 260725 AAA
TAFZZV
TAF AMD
KZZV 260725Z 2607/2706 00000KT 3SM BR SCT025
      TEMPO 2610/2612 2SM BR
     FM261300 09004KT P6SM SCT030=

USA.gov is the U.S. government's official web portal to all federal, state and local government web resources and services.